Time;durP1;ratioP1;P1;durP2;ratioP2;P2;SDS_P1;SDS_P2;PMS_P1;PMS_P2;Temp;Humidity;BMP_temperature;BMP_pressure;BME280_temperature;BME280_humidity;BME280_pressure;Samples;Min_cycle;Max_cycle;Signal;HPM_P1;HPM_P2
2022/09/03 00:02:20;;;;;;;;;12.33;11.00;;;;;22.05;58.66;100283.34;5095532;27;45338;-57
2022/09/03 00:05:12;;;;;;;;;14.00;11.67;;;;;22.00;58.72;100274.00;5093686;27;45556;-57
2022/09/03 00:07:57;;;;;;;;;11.67;10.00;;;;;22.04;58.91;100275.38;5094119;27;45342;-58
2022/09/03 00:10:35;;;;;;;;;11.00;11.00;;;;;22.02;59.08;100274.69;5076826;27;45311;-58
2022/09/03 00:13:04;;;;;;;;;10.67;10.33;;;;;21.99;59.22;100273.16;5089029;27;45367;-56
2022/09/03 00:15:32;;;;;;;;;9.50;9.50;;;;;22.00;59.19;100274.84;5090468;27;45465;-56
2022/09/03 00:18:09;;;;;;;;;12.50;10.00;;;;;21.98;59.73;100276.03;5076524;27;46129;-57
2022/09/03 00:20:45;;;;;;;;;10.67;9.67;;;;;21.93;59.97;100278.41;5088312;27;46385;-56
2022/09/03 00:23:20;;;;;;;;;9.00;9.00;;;;;21.87;59.99;100268.22;5097210;27;45310;-56
2022/09/03 00:26:11;;;;;;;;;10.00;9.00;;;;;21.87;60.48;100273.63;5094812;27;47611;-58
2022/09/03 00:28:58;;;;;;;;;12.00;9.67;;;;;21.85;60.65;100270.25;5088344;27;45242;-60
2022/09/03 00:31:35;;;;;;;;;11.33;9.67;;;;;21.83;60.91;100283.09;5077472;27;45746;-59
2022/09/03 00:34:10;;;;;;;;;10.00;9.00;;;;;21.82;61.30;100276.84;5077566;27;45542;-58
2022/09/03 00:36:44;;;;;;;;;10.33;10.00;;;;;21.81;61.78;100277.03;5092964;27;46300;-57
2022/09/03 00:39:18;;;;;;;;;10.00;9.00;;;;;21.79;61.13;100278.03;5093862;27;45393;-58
2022/09/03 00:41:58;;;;;;;;;7.75;7.75;;;;;21.78;61.58;100270.09;5079568;27;45256;-57
2022/09/03 00:44:55;;;;;;;;;6.33;5.00;;;;;21.77;61.47;100274.66;5078075;27;45618;-57
2022/09/03 00:47:33;;;;;;;;;9.67;9.67;;;;;21.75;61.46;100271.28;5074139;27;46363;-58
2022/09/03 00:50:17;;;;;;;;;10.33;8.00;;;;;21.76;62.06;100267.53;5089938;27;45462;-58
2022/09/03 00:52:55;;;;;;;;;8.67;8.00;;;;;21.74;61.72;100268.69;5095995;27;45487;-56
2022/09/03 00:55:30;;;;;;;;;9.00;8.67;;;;;21.75;61.72;100260.44;5082180;27;45537;-57
2022/09/03 00:58:28;;;;;;;;;9.00;9.00;;;;;21.71;61.96;100269.88;5095566;27;45640;-57
2022/09/03 01:00:55;;;;;;;;;8.00;6.33;;;;;21.73;61.88;100265.16;5093813;27;45554;-59
2022/09/03 01:03:39;;;;;;;;;11.00;7.00;;;;;21.74;61.67;100274.13;5096420;27;45464;-57
2022/09/03 01:06:26;;;;;;;;;10.00;8.67;;;;;21.73;61.94;100273.25;5093598;27;45614;-57
2022/09/03 01:09:15;;;;;;;;;8.25;8.25;;;;;21.73;61.80;100278.69;5080514;27;45352;-57
2022/09/03 01:12:13;;;;;;;;;7.00;7.00;;;;;21.74;62.12;100274.97;5093938;27;45747;-56
2022/09/03 01:14:55;;;;;;;;;7.00;7.00;;;;;21.72;61.52;100276.16;5086064;27;45378;-57
2022/09/03 01:17:42;;;;;;;;;6.75;6.50;;;;;21.71;61.95;100280.72;5079003;27;45823;-59
2022/09/03 01:20:33;;;;;;;;;7.00;7.00;;;;;21.69;61.75;100280.03;5090943;27;46275;-57
2022/09/03 01:23:26;;;;;;;;;9.33;8.00;;;;;21.68;61.97;100281.03;5093124;27;45570;-58
2022/09/03 01:26:14;;;;;;;;;7.67;7.67;;;;;21.66;61.86;100280.38;5094580;27;45351;-58
2022/09/03 01:29:09;;;;;;;;;9.33;8.00;;;;;21.61;61.83;100280.00;5081496;27;45526;-58
2022/09/03 01:32:05;;;;;;;;;6.00;6.00;;;;;21.57;62.02;100284.06;5088866;27;46366;-57
2022/09/03 01:34:40;;;;;;;;;7.67;7.67;;;;;21.54;62.78;100278.97;5087496;27;45538;-57
2022/09/03 01:37:23;;;;;;;;;9.00;7.33;;;;;21.52;62.39;100277.44;5084369;27;45425;-56
2022/09/03 01:40:14;;;;;;;;;8.33;7.33;;;;;21.48;62.30;100271.50;5087951;27;45183;-56
2022/09/03 01:42:40;;;;;;;;;7.00;7.00;;;;;21.51;62.13;100275.75;5075022;27;45428;-57
2022/09/03 01:45:24;;;;;;;;;9.67;8.67;;;;;21.51;62.42;100273.91;5081495;27;45337;-58
2022/09/03 01:48:29;;;;;;;;;5.00;5.00;;;;;21.51;62.15;100278.47;5095044;27;45425;-57
2022/09/03 01:51:07;;;;;;;;;9.00;7.67;;;;;21.48;62.33;100271.50;5077188;27;46711;-57
2022/09/03 01:54:01;;;;;;;;;6.00;6.00;;;;;21.50;62.31;100269.50;5084104;27;46405;-56
2022/09/03 01:56:45;;;;;;;;;10.67;10.33;;;;;21.52;61.99;100272.03;5098279;27;45315;-57
2022/09/03 01:59:32;;;;;;;;;8.67;8.00;;;;;21.49;62.38;100270.53;5091907;27;45579;-58
2022/09/03 02:02:06;;;;;;;;;9.00;7.33;;;;;21.46;62.48;100268.13;5088099;27;45433;-57
2022/09/03 02:04:31;;;;;;;;;9.33;8.00;;;;;21.46;62.48;100270.81;5081767;27;47199;-58
2022/09/03 02:07:00;;;;;;;;;8.67;8.67;;;;;21.44;62.45;100270.16;5093883;27;46676;-58
2022/09/03 02:09:26;;;;;;;;;10.33;8.33;;;;;21.44;62.28;100268.28;5081097;27;45259;-58
2022/09/03 02:12:15;;;;;;;;;8.00;6.33;;;;;21.41;62.47;100271.31;5079094;27;45715;-57
2022/09/03 02:14:41;;;;;;;;;7.00;7.00;;;;;21.36;62.29;100265.56;5088374;27;46562;-57
2022/09/03 02:17:07;;;;;;;;;7.00;7.00;;;;;21.34;62.56;100267.56;5077653;27;45779;-58
2022/09/03 02:19:36;;;;;;;;;7.00;5.00;;;;;21.35;62.75;100271.13;5079513;27;45366;-57
2022/09/03 02:22:03;;;;;;;;;7.00;7.00;;;;;21.33;62.07;100273.13;5096333;27;45543;-57
2022/09/03 02:24:28;;;;;;;;;9.00;6.00;;;;;21.33;62.86;100270.44;5097975;27;45576;-59
2022/09/03 02:26:54;;;;;;;;;6.00;6.00;;;;;21.28;62.82;100279.06;5096863;27;45381;-58
2022/09/03 02:29:20;;;;;;;;;7.67;6.00;;;;;21.27;63.15;100276.50;5093715;27;45518;-57
2022/09/03 02:31:45;;;;;;;;;9.67;7.00;;;;;21.25;63.10;100267.69;5089075;27;45349;-57
2022/09/03 02:34:11;;;;;;;;;7.00;7.00;;;;;21.23;63.41;100269.72;5078365;27;45515;-59
2022/09/03 02:36:40;;;;;;;;;7.00;7.00;;;;;21.18;63.72;100273.72;5093877;27;45495;-57
2022/09/03 02:39:08;;;;;;;;;9.00;8.00;;;;;21.12;64.06;100271.69;5084016;27;45219;-58
2022/09/03 02:41:34;;;;;;;;;9.67;8.00;;;;;21.14;63.75;100272.38;5093754;27;45531;-58
2022/09/03 02:44:09;;;;;;;;;7.00;6.33;;;;;21.13;63.86;100276.06;5091665;27;45404;-57
2022/09/03 02:46:39;;;;;;;;;7.00;7.00;;;;;21.10;64.38;100275.56;5097416;27;45719;-57
2022/09/03 02:49:06;;;;;;;;;8.00;8.00;;;;;21.02;64.42;100270.94;5097510;27;45346;-58
2022/09/03 02:51:36;;;;;;;;;6.67;6.67;;;;;21.01;64.69;100277.38;5081995;27;45441;-56
2022/09/03 02:54:02;;;;;;;;;7.67;7.67;;;;;20.97;64.78;100276.00;5097154;27;46456;-57
2022/09/03 02:56:28;;;;;;;;;7.33;7.33;;;;;20.83;65.10;100254.94;5090421;27;45349;-57
2022/09/03 02:58:53;;;;;;;;;9.33;8.00;;;;;20.92;65.42;100279.16;5089848;27;45416;-57
2022/09/03 03:01:19;;;;;;;;;9.67;9.00;;;;;20.88;65.35;100271.53;5097415;27;45404;-57
2022/09/03 03:03:44;;;;;;;;;8.00;8.00;;;;;20.92;65.68;100283.72;5097285;27;46392;-57
2022/09/03 03:06:12;;;;;;;;;7.67;7.67;;;;;20.83;65.59;100260.34;5083727;27;45535;-57
2022/09/03 03:08:38;;;;;;;;;10.33;9.67;;;;;20.88;66.37;100276.94;5077507;27;45267;-55
2022/09/03 03:11:03;;;;;;;;;9.33;9.33;;;;;20.83;66.51;100281.97;5083560;27;45342;-57
2022/09/03 03:13:30;;;;;;;;;10.00;8.00;;;;;20.78;66.28;100276.22;5092972;27;46815;-58
2022/09/03 03:16:00;;;;;;;;;8.33;8.33;;;;;20.79;66.53;100283.31;5095050;27;45397;-57
2022/09/03 03:18:25;;;;;;;;;7.00;7.00;;;;;20.75;66.89;100281.94;5095405;27;45245;-58
2022/09/03 03:20:51;;;;;;;;;10.00;10.00;;;;;20.71;67.24;100276.00;5084217;27;45533;-58
2022/09/03 03:23:16;;;;;;;;;9.33;9.00;;;;;20.72;67.28;100280.41;5082408;27;45518;-58
2022/09/03 03:25:42;;;;;;;;;8.67;8.67;;;;;20.72;67.35;100274.16;5082916;27;45486;-58
2022/09/03 03:28:08;;;;;;;;;9.67;8.33;;;;;20.62;67.53;100263.44;5088250;27;45508;-58
2022/09/03 03:30:38;;;;;;;;;11.00;9.00;;;;;20.63;67.68;100267.00;5096427;27;45458;-58
2022/09/03 03:33:06;;;;;;;;;11.33;11.00;;;;;20.65;67.68;100275.78;5096340;27;46912;-59
2022/09/03 03:35:31;;;;;;;;;12.67;11.00;;;;;20.57;68.43;100261.22;5115796;27;45736;-58
2022/09/03 03:37:58;;;;;;;;;9.33;9.33;;;;;20.56;68.67;100267.59;5097024;27;45337;-57
2022/09/03 03:40:24;;;;;;;;;11.33;9.00;;;;;20.50;68.46;100262.84;5096250;27;45592;-58
2022/09/03 03:42:49;;;;;;;;;11.33;10.00;;;;;20.45;68.54;100265.19;5084601;27;46940;-59
2022/09/03 03:45:15;;;;;;;;;9.33;8.00;;;;;20.44;68.86;100252.66;5088052;27;45307;-57
2022/09/03 03:47:40;;;;;;;;;10.00;9.00;;;;;20.53;69.05;100257.13;5095228;27;45581;-58
2022/09/03 03:50:06;;;;;;;;;10.67;9.33;;;;;20.51;68.82;100259.16;5097512;27;45411;-58
2022/09/03 03:52:31;;;;;;;;;9.67;8.67;;;;;20.46;68.77;100253.38;5091395;27;45381;-57
2022/09/03 03:54:57;;;;;;;;;10.33;10.33;;;;;20.49;69.28;100260.31;5075698;27;45439;-57
2022/09/03 03:57:22;;;;;;;;;9.00;9.00;;;;;20.30;69.25;100226.19;5086228;27;45606;-58
2022/09/03 03:59:48;;;;;;;;;8.67;8.67;;;;;20.40;69.71;100248.56;5092809;27;45543;-59
2022/09/03 04:02:15;;;;;;;;;9.00;8.67;;;;;20.47;69.30;100268.56;5096667;27;45760;-57
2022/09/03 04:04:40;;;;;;;;;8.00;6.33;;;;;20.47;69.30;100263.19;5085799;27;45370;-58
2022/09/03 04:07:07;;;;;;;;;9.67;9.00;;;;;20.37;69.46;100246.19;5076784;27;45669;-58
2022/09/03 04:09:33;;;;;;;;;11.67;10.67;;;;;20.42;69.55;100265.47;5081703;27;45595;-58
2022/09/03 04:11:58;;;;;;;;;11.67;10.00;;;;;20.39;69.62;100260.38;5095071;27;46118;-57
2022/09/03 04:14:26;;;;;;;;;10.67;10.67;;;;;20.37;69.98;100256.97;5091733;27;45443;-58
2022/09/03 04:16:51;;;;;;;;;11.67;11.67;;;;;20.35;70.22;100261.69;5086825;27;45522;-59
2022/09/03 04:19:17;;;;;;;;;12.67;12.67;;;;;20.35;69.86;100269.81;5095188;27;45502;-57
2022/09/03 04:21:42;;;;;;;;;14.00;11.33;;;;;20.35;69.96;100267.09;5096124;27;45365;-58
2022/09/03 04:24:08;;;;;;;;;9.67;8.00;;;;;20.35;70.22;100269.81;5075821;27;45257;-58
2022/09/03 04:26:34;;;;;;;;;9.00;9.00;;;;;20.30;70.36;100267.56;5078832;27;45538;-57
2022/09/03 04:29:03;;;;;;;;;9.67;9.67;;;;;20.28;70.38;100255.22;5077363;27;46152;-57
2022/09/03 04:31:28;;;;;;;;;13.00;11.00;;;;;20.29;70.05;100265.00;5095759;27;46306;-59
2022/09/03 04:33:54;;;;;;;;;8.00;8.00;;;;;20.36;70.26;100270.66;5092316;27;45666;-58
2022/09/03 04:36:22;;;;;;;;;9.00;8.00;;;;;20.31;70.39;100273.78;5078660;27;45425;-56
2022/09/03 04:38:50;;;;;;;;;11.33;11.00;;;;;20.31;70.43;100265.69;5093727;27;45346;-56
2022/09/03 04:41:24;;;;;;;;;10.67;10.00;;;;;20.33;70.08;100277.22;5081865;27;46295;-57
2022/09/03 04:43:50;;;;;;;;;12.67;11.33;;;;;20.28;70.70;100257.91;5077842;27;45374;-58
2022/09/03 04:46:16;;;;;;;;;11.00;11.00;;;;;20.35;70.32;100272.50;5095856;27;45249;-57
2022/09/03 04:48:42;;;;;;;;;10.00;10.00;;;;;20.33;70.37;100266.41;5094973;27;45256;-58
2022/09/03 04:51:13;;;;;;;;;9.00;9.00;;;;;20.33;70.54;100274.50;5108881;27;45457;-58
2022/09/03 04:53:41;;;;;;;;;9.67;9.67;;;;;20.34;70.56;100270.81;5096016;27;45179;-58
2022/09/03 04:56:17;;;;;;;;;9.00;9.00;;;;;20.35;70.27;100275.19;5086115;27;45610;-59
2022/09/03 04:58:43;;;;;;;;;12.00;12.00;;;;;20.37;70.68;100273.19;5101158;27;45636;-58
2022/09/03 05:01:19;;;;;;;;;10.67;10.67;;;;;20.24;70.24;100261.94;5082216;27;46202;-57
2022/09/03 05:03:45;;;;;;;;;15.00;11.00;;;;;20.29;70.40;100279.34;5086297;27;45533;-58
2022/09/03 05:06:12;;;;;;;;;13.33;13.33;;;;;20.29;70.79;100281.22;5116403;27;45414;-59
2022/09/03 05:08:39;;;;;;;;;12.67;11.00;;;;;20.28;70.46;100268.72;5084766;27;45658;-56
2022/09/03 05:11:06;;;;;;;;;8.00;7.33;;;;;20.31;70.77;100271.97;5079395;27;47221;-57
2022/09/03 05:13:33;;;;;;;;;15.00;11.33;;;;;20.31;70.26;100279.19;5079712;27;45385;-57
2022/09/03 05:16:05;;;;;;;;;14.00;12.67;;;;;20.33;70.54;100274.50;5079056;27;45382;-57
2022/09/03 05:18:31;;;;;;;;;11.00;11.00;;;;;20.31;70.52;100273.78;5081692;27;45397;-57
2022/09/03 05:21:03;;;;;;;;;12.33;11.00;;;;;20.38;70.44;100272.19;5093828;27;45480;-57
2022/09/03 05:23:29;;;;;;;;;12.00;11.00;;;;;20.37;70.15;100266.94;5089031;27;45684;-57
2022/09/03 05:26:00;;;;;;;;;12.67;12.00;;;;;20.40;70.38;100283.66;5080158;27;45575;-57
2022/09/03 05:28:28;;;;;;;;;11.00;11.00;;;;;20.41;70.41;100281.81;5095810;27;45527;-59
2022/09/03 05:31:01;;;;;;;;;15.00;11.33;;;;;20.40;70.48;100283.66;5098389;27;46040;-57
2022/09/03 05:33:27;;;;;;;;;10.00;10.00;;;;;20.41;70.36;100285.38;5099233;27;45258;-57
2022/09/03 05:35:54;;;;;;;;;9.33;7.33;;;;;20.38;70.33;100274.88;5088835;27;45399;-58
2022/09/03 05:38:19;;;;;;;;;11.33;10.00;;;;;20.24;70.56;100259.25;5093213;27;45399;-57
2022/09/03 05:40:45;;;;;;;;;12.00;11.00;;;;;20.41;70.36;100285.38;5084185;27;45493;-58
2022/09/03 05:43:10;;;;;;;;;12.00;10.00;;;;;20.43;70.23;100285.22;5095563;27;45222;-57
2022/09/03 05:45:36;;;;;;;;;14.00;13.00;;;;;20.41;69.82;100288.06;5083723;27;45278;-56
2022/09/03 05:48:01;;;;;;;;;11.67;11.67;;;;;20.43;70.63;100294.19;5102574;27;45420;-56
2022/09/03 05:50:26;;;;;;;;;12.67;11.00;;;;;20.44;70.12;100289.63;5099122;27;46298;-57
2022/09/03 05:52:52;;;;;;;;;16.00;13.00;;;;;20.45;70.07;100292.19;5093085;27;47788;-58
2022/09/03 05:55:18;;;;;;;;;15.33;11.33;;;;;20.46;70.16;100298.44;5088180;27;45362;-58
2022/09/03 05:57:44;;;;;;;;;12.00;11.00;;;;;20.41;70.17;100298.88;5098818;27;45586;-56
2022/09/03 06:00:11;;;;;;;;;12.67;9.67;;;;;20.45;70.07;100296.75;5099009;27;46048;-57
2022/09/03 06:02:36;;;;;;;;;13.67;12.00;;;;;20.49;70.09;100298.97;5097046;27;45799;-55
2022/09/03 06:05:02;;;;;;;;;12.33;11.00;;;;;20.49;70.09;100303.53;5095179;27;45547;-57
2022/09/03 06:07:28;;;;;;;;;12.33;11.00;;;;;20.48;70.20;100318.91;5097946;27;45354;-56
2022/09/03 06:09:53;;;;;;;;;11.00;11.00;;;;;20.49;69.94;100315.19;5097645;27;45534;-56
2022/09/03 06:12:19;;;;;;;;;13.00;11.33;;;;;20.49;70.00;100319.75;5099151;27;45384;-56
2022/09/03 06:14:44;;;;;;;;;11.00;10.00;;;;;20.49;69.91;100330.56;5097925;27;45538;-57
2022/09/03 06:17:11;;;;;;;;;11.33;10.00;;;;;20.43;70.11;100315.78;5097022;27;45523;-55
2022/09/03 06:19:37;;;;;;;;;11.00;11.00;;;;;20.49;70.13;100314.34;5087388;27;45582;-55
2022/09/03 06:22:02;;;;;;;;;5.33;5.33;;;;;20.56;70.06;100321.66;5098424;27;45498;-55
2022/09/03 06:24:28;;;;;;;;;9.33;9.33;;;;;20.61;69.73;100334.69;5093736;27;45498;-57
2022/09/03 06:26:55;;;;;;;;;12.33;9.67;;;;;20.63;69.69;100331.84;5093723;27;45703;-60
2022/09/03 06:29:21;;;;;;;;;14.33;13.00;;;;;20.64;69.82;100338.94;5086507;27;46238;-56
2022/09/03 06:31:50;;;;;;;;;12.33;9.00;;;;;20.61;69.44;100326.59;5093423;27;45439;-58
2022/09/03 06:34:17;;;;;;;;;10.00;10.00;;;;;20.60;69.44;100328.44;5102908;27;45366;-57
2022/09/03 06:36:43;;;;;;;;;13.00;11.67;;;;;20.60;69.54;100339.25;5121271;27;45430;-57
2022/09/03 06:39:08;;;;;;;;;16.33;12.00;;;;;20.61;69.41;100340.97;5098070;27;46188;-57
2022/09/03 06:41:34;;;;;;;;;13.33;12.00;;;;;20.60;69.42;100349.22;5098053;27;45335;-58
2022/09/03 06:44:02;;;;;;;;;13.00;13.00;;;;;20.56;69.25;100342.41;5109671;27;45415;-56
2022/09/03 06:46:32;;;;;;;;;12.00;11.00;;;;;20.57;69.40;100344.97;5097466;27;45578;-57
2022/09/03 06:48:57;;;;;;;;;12.00;12.00;;;;;20.59;69.42;100342.13;5096999;27;46295;-60
2022/09/03 06:51:25;;;;;;;;;9.67;9.67;;;;;20.61;69.15;100340.97;5097108;27;45305;-58
2022/09/03 06:53:55;;;;;;;;;13.00;11.00;;;;;20.66;68.99;100347.72;5084579;27;45489;-54
2022/09/03 06:56:25;;;;;;;;;14.67;13.33;;;;;20.69;68.89;100347.41;5097098;27;45523;-57
2022/09/03 06:58:53;;;;;;;;;14.00;12.00;;;;;20.72;68.91;100353.38;5098141;27;46357;-57
2022/09/03 07:01:21;;;;;;;;;13.00;13.00;;;;;20.63;69.16;100348.06;5109642;27;45320;-55
2022/09/03 07:03:51;;;;;;;;;14.67;14.67;;;;;20.56;69.41;100342.41;5098458;27;45233;-54
2022/09/03 07:06:20;;;;;;;;;12.00;12.00;;;;;20.52;69.05;100344.59;5098275;27;45378;-55
2022/09/03 07:08:45;;;;;;;;;12.00;10.67;;;;;20.60;68.73;100346.53;5094849;27;45255;-58
2022/09/03 07:11:14;;;;;;;;;11.67;11.00;;;;;20.69;68.49;100352.81;5086068;27;46317;-59
2022/09/03 07:13:43;;;;;;;;;10.67;9.00;;;;;20.68;68.48;100345.72;5102578;27;45441;-56
2022/09/03 07:16:14;;;;;;;;;12.00;11.00;;;;;20.71;68.42;100346.28;5109359;27;45468;-58
2022/09/03 07:18:42;;;;;;;;;14.33;11.33;;;;;20.76;67.94;100345.78;5098531;27;47085;-56
2022/09/03 07:21:12;;;;;;;;;10.67;9.67;;;;;20.80;67.85;100348.00;5091646;27;46072;-56
2022/09/03 07:23:38;;;;;;;;;12.33;10.67;;;;;20.81;67.87;100340.75;5096801;27;45350;-56
2022/09/03 07:26:11;;;;;;;;;11.00;11.00;;;;;20.85;67.73;100342.16;5098604;27;45515;-57
2022/09/03 07:28:38;;;;;;;;;13.33;10.00;;;;;20.87;67.75;100349.09;5106649;27;46617;-58
2022/09/03 07:31:08;;;;;;;;;12.33;9.33;;;;;20.87;67.69;100350.94;5108974;27;45446;-57
2022/09/03 07:33:33;;;;;;;;;13.00;10.33;;;;;20.85;67.68;100347.56;5103689;27;45193;-57
2022/09/03 07:36:05;;;;;;;;;13.67;11.00;;;;;20.87;67.35;100353.66;5102751;27;45241;-57
2022/09/03 07:38:31;;;;;;;;;10.33;9.33;;;;;20.89;67.52;100352.47;5096054;27;45429;-58
2022/09/03 07:40:58;;;;;;;;;12.33;10.00;;;;;20.92;67.59;100359.41;5085545;27;45430;-57
2022/09/03 07:43:28;;;;;;;;;13.67;11.33;;;;;21.09;67.22;100363.06;5082433;27;45401;-58
2022/09/03 07:45:55;;;;;;;;;9.33;9.33;;;;;21.28;66.40;100364.75;5080087;27;45664;-58
2022/09/03 07:48:22;;;;;;;;;13.33;10.00;;;;;21.39;65.65;100362.63;5096253;27;45554;-57
2022/09/03 07:50:47;;;;;;;;;11.33;11.33;;;;;21.41;65.45;100365.16;5092643;27;45545;-58
2022/09/03 07:53:15;;;;;;;;;11.67;10.00;;;;;21.38;65.05;100354.69;5092148;27;45275;-58
2022/09/03 07:55:43;;;;;;;;;12.33;11.00;;;;;21.38;64.97;100360.09;5089966;27;45590;-56
2022/09/03 07:58:09;;;;;;;;;9.00;9.00;;;;;21.43;64.74;100365.84;5105292;27;45999;-58
2022/09/03 08:00:35;;;;;;;;;8.00;8.00;;;;;21.48;65.22;100364.38;5094115;27;45538;-59
2022/09/03 08:03:04;;;;;;;;;9.67;9.33;;;;;21.47;64.78;100356.38;5100413;27;45419;-57
2022/09/03 08:05:31;;;;;;;;;8.33;8.00;;;;;21.58;64.56;100366.09;5096168;27;45489;-58
2022/09/03 08:07:59;;;;;;;;;8.25;7.75;;;;;21.72;64.31;100371.72;5096358;27;45966;-58
2022/09/03 08:10:27;;;;;;;;;11.00;10.00;;;;;21.82;63.61;100365.34;5100422;27;45552;-57
2022/09/03 08:12:53;;;;;;;;;12.67;11.00;;;;;21.99;63.72;100377.91;5091794;27;45392;-57
2022/09/03 08:15:18;;;;;;;;;8.67;8.67;;;;;22.10;62.47;100372.22;5070621;27;45392;-57
2022/09/03 08:17:44;;;;;;;;;8.00;7.67;;;;;22.16;62.42;100382.41;5087205;27;45907;-56
2022/09/03 08:20:09;;;;;;;;;9.00;9.00;;;;;22.31;61.97;100385.31;5092951;27;45287;-58
2022/09/03 08:22:36;;;;;;;;;7.00;7.00;;;;;22.42;61.88;100386.84;5089547;27;45789;-57
2022/09/03 08:25:01;;;;;;;;;8.67;6.67;;;;;22.54;61.41;100390.94;5095454;27;45523;-56
2022/09/03 08:27:29;;;;;;;;;7.67;7.67;;;;;22.58;61.06;100403.13;5089502;27;45550;-57
2022/09/03 08:29:54;;;;;;;;;8.00;8.00;;;;;22.56;61.03;100389.75;5094276;27;45436;-56
2022/09/03 08:32:20;;;;;;;;;9.00;9.00;;;;;22.47;60.69;100395.31;5082565;27;45529;-57
2022/09/03 08:34:45;;;;;;;;;7.67;7.67;;;;;22.41;61.58;100396.84;5091288;27;45453;-58
2022/09/03 08:37:12;;;;;;;;;10.50;9.00;;;;;22.50;61.85;100397.69;5100100;27;45417;-57
2022/09/03 08:39:38;;;;;;;;;7.67;7.67;;;;;22.60;61.10;100401.09;5094135;27;45407;-57
2022/09/03 08:42:09;;;;;;;;;5.00;5.00;;;;;22.86;61.53;100400.97;5108345;27;45452;-56
2022/09/03 08:44:48;;;;;;;;;8.67;8.67;;;;;23.18;60.29;100402.81;5095578;27;45551;-56
2022/09/03 08:47:26;;;;;;;;;5.75;5.75;;;;;23.39;58.99;100408.50;5095835;27;45409;-56
2022/09/03 08:50:01;;;;;;;;;6.00;6.00;;;;;23.58;58.67;100406.47;5097152;27;45354;-57
2022/09/03 08:52:40;;;;;;;;;6.00;6.00;;;;;23.83;58.19;100399.94;5089130;27;45366;-57
2022/09/03 08:55:33;;;;;;;;;8.75;7.25;;;;;24.07;57.42;100399.78;5074700;27;45446;-57
2022/09/03 08:58:18;;;;;;;;;8.00;6.75;;;;;24.33;57.07;100409.53;5072659;28;46085;-56
2022/09/03 09:01:14;;;;;;;;;7.60;7.60;;;;;24.61;56.59;100413.44;5075212;27;45479;-58
2022/09/03 09:04:11;;;;;;;;;9.25;4.50;;;;;24.76;55.73;100407.22;5095388;27;46125;-59
2022/09/03 09:06:36;;;;;;;;;8.50;6.25;;;;;24.91;54.94;100411.66;5079881;27;45380;-57
2022/09/03 09:09:24;;;;;;;;;5.50;4.75;;;;;25.17;54.59;100403.13;5098246;27;46325;-56
2022/09/03 09:11:52;;;;;;;;;8.00;7.50;;;;;25.55;53.25;100414.81;5058709;27;45383;-50
2022/09/03 09:14:30;;;;;;;;;6.75;6.75;;;;;25.89;53.52;100410.66;5079618;27;45409;-49
2022/09/03 09:17:17;;;;;;;;;8.50;4.25;;;;;26.20;52.14;100413.16;5079767;27;45455;-53
2022/09/03 09:20:14;;;;;;;;;6.00;5.20;;;;;26.50;51.11;100410.38;5105151;27;45497;-52
2022/09/03 09:22:43;;;;;;;;;4.00;4.00;;;;;26.34;50.16;100420.47;5097464;27;45497;-52
2022/09/03 09:25:21;;;;;;;;;4.00;4.00;;;;;26.18;50.55;100415.25;5097262;27;45452;-52
2022/09/03 09:28:00;;;;;;;;;4.50;4.50;;;;;26.13;51.54;100412.22;5100924;27;45896;-50
2022/09/03 09:30:27;;;;;;;;;3.75;3.25;;;;;26.09;49.64;100409.06;5079437;27;46227;-51
2022/09/03 09:32:54;;;;;;;;;5.20;5.20;;;;;26.14;50.59;100409.31;5095387;27;45465;-53
2022/09/03 09:35:20;;;;;;;;;6.40;5.20;;;;;26.06;50.71;100405.88;5120110;27;45340;-50
2022/09/03 09:38:04;;;;;;;;;8.50;8.50;;;;;26.12;50.78;100411.38;5116674;27;45486;-53
2022/09/03 09:40:35;;;;;;;;;3.20;3.20;;;;;25.96;51.19;100388.97;5100554;27;45402;-52
2022/09/03 09:43:05;;;;;;;;;5.40;4.40;;;;;25.86;50.67;100422.78;5107978;27;45570;-55
2022/09/03 09:45:32;;;;;;;;;6.00;4.75;;;;;25.65;51.65;100414.50;5081169;27;45511;-55
2022/09/03 09:47:59;;;;;;;;;3.00;3.00;;;;;25.53;51.87;100421.47;5086464;27;45437;-49
2022/09/03 09:50:24;;;;;;;;;6.40;5.00;;;;;25.41;51.66;100409.34;5078676;27;45472;-53
2022/09/03 09:53:04;;;;;;;;;4.00;4.00;;;;;25.18;52.39;100412.97;5098598;27;45213;-50
2022/09/03 09:55:31;;;;;;;;;5.40;3.80;;;;;24.95;53.00;100421.13;5098335;27;45453;-55
2022/09/03 09:58:08;;;;;;;;;4.50;4.50;;;;;24.70;53.80;100423.22;5097681;27;45368;-55
2022/09/03 10:00:36;;;;;;;;;5.00;4.00;;;;;24.61;54.54;100423.44;5096829;27;46221;-49
2022/09/03 10:03:09;;;;;;;;;7.80;5.60;;;;;24.55;54.55;100425.03;5099066;27;45280;-52
2022/09/03 10:05:38;;;;;;;;;6.50;6.50;;;;;24.63;54.65;100427.69;5097945;27;45278;-55
2022/09/03 10:08:17;;;;;;;;;6.25;6.00;;;;;24.72;54.82;100428.47;5103780;27;45433;-50
2022/09/03 10:10:49;;;;;;;;;3.50;3.50;;;;;24.71;54.72;100433.06;5098484;27;45384;-48
2022/09/03 10:13:25;;;;;;;;;6.00;6.00;;;;;24.68;54.71;100436.16;5118097;27;45503;-52
2022/09/03 10:16:08;;;;;;;;;9.00;5.00;;;;;24.56;54.61;100429.44;5116051;27;45362;-47
2022/09/03 10:18:57;;;;;;;;;4.75;4.75;;;;;24.37;55.24;100435.34;5078748;27;45520;-54
2022/09/03 10:21:33;;;;;;;;;4.50;4.50;;;;;24.12;55.55;100435.44;5078749;27;46407;-53
2022/09/03 10:24:18;;;;;;;;;6.75;5.25;;;;;23.98;55.74;100432.63;5093915;27;45421;-54
2022/09/03 10:26:45;;;;;;;;;6.00;5.25;;;;;23.78;56.18;100432.19;5114545;27;45709;-54
2022/09/03 10:29:15;;;;;;;;;5.50;4.50;;;;;23.67;56.45;100429.84;5087662;27;45440;-52
2022/09/03 10:31:52;;;;;;;;;4.00;4.00;;;;;23.68;56.82;100445.09;5096900;27;46694;-55
2022/09/03 10:34:35;;;;;;;;;5.25;5.00;;;;;23.76;56.48;100448.66;5092257;27;45418;-56
2022/09/03 10:37:32;;;;;;;;;7.00;5.25;;;;;23.70;56.36;100432.19;5083416;27;45446;-49
2022/09/03 10:40:20;;;;;;;;;5.50;5.00;;;;;23.76;56.83;100453.25;5091495;27;45405;-49
2022/09/03 10:43:03;;;;;;;;;4.25;4.25;;;;;23.84;56.25;100447.81;5082412;27;46325;-49
2022/09/03 10:46:06;;;;;;;;;5.25;4.00;;;;;23.86;56.44;100453.06;5078059;27;45307;-54
2022/09/03 10:48:49;;;;;;;;;5.75;3.75;;;;;23.97;56.53;100458.09;5091039;27;45448;-55
2022/09/03 10:51:32;;;;;;;;;3.00;3.00;;;;;24.02;56.58;100448.38;5089994;27;45593;-57
2022/09/03 10:54:12;;;;;;;;;8.00;5.75;;;;;24.13;55.47;100453.44;5081038;27;46708;-51
2022/09/03 10:56:48;;;;;;;;;5.75;5.75;;;;;24.07;55.20;100445.13;5080318;27;45434;-48
2022/09/03 10:59:34;;;;;;;;;7.00;7.00;;;;;24.23;55.57;100449.66;5088015;27;45553;-50
2022/09/03 11:02:28;;;;;;;;;7.00;3.50;;;;;24.19;55.28;100451.03;5083413;27;45483;-54
2022/09/03 11:05:06;;;;;;;;;7.00;7.00;;;;;24.13;55.60;100450.72;5099190;27;45521;-52
2022/09/03 11:07:38;;;;;;;;;4.75;4.75;;;;;24.01;55.02;100449.41;5094245;27;45377;-57
2022/09/03 11:10:07;;;;;;;;;1.50;1.50;;;;;23.95;55.47;100449.25;5097623;27;45307;-56
2022/09/03 11:12:43;;;;;;;;;3.00;3.00;;;;;23.96;54.81;100435.53;5083789;27;45598;-55
2022/09/03 11:15:17;;;;;;;;;3.00;3.00;;;;;23.98;54.29;100444.34;5090183;27;45490;-57
2022/09/03 11:17:49;;;;;;;;;5.50;4.00;;;;;23.95;54.80;100441.94;5096456;27;45308;-58
2022/09/03 11:20:22;;;;;;;;;6.75;5.75;;;;;23.99;54.69;100437.88;5091043;27;45258;-56
2022/09/03 11:22:53;;;;;;;;;6.50;6.25;;;;;23.97;54.06;100439.94;5082292;27;45513;-56
2022/09/03 11:25:24;;;;;;;;;7.00;4.00;;;;;24.03;54.34;100449.22;5084054;27;46202;-57
2022/09/03 11:28:18;;;;;;;;;4.00;4.00;;;;;24.02;54.85;100447.53;5087915;27;45357;-56
2022/09/03 11:31:20;;;;;;;;;5.75;5.75;;;;;24.14;54.24;100451.56;5092654;27;45309;-56
2022/09/03 11:33:53;;;;;;;;;6.25;4.00;;;;;24.26;54.27;100449.31;5103396;27;45488;-58
2022/09/03 11:36:33;;;;;;;;;4.75;4.75;;;;;24.29;53.75;100441.63;5096150;27;45432;-55
2022/09/03 11:38:59;;;;;;;;;3.00;3.00;;;;;24.45;53.44;100442.59;5096828;27;45302;-57
2022/09/03 11:41:27;;;;;;;;;5.60;4.00;;;;;24.55;52.56;100435.91;5096453;27;45203;-59
2022/09/03 11:43:53;;;;;;;;;4.25;4.25;;;;;24.70;52.52;100436.81;5097876;27;45218;-58